Aviation Digital Data Service (ADDS)

Output produced by METARs form (0744 UTC 27 July 2016)
found at http://aviationweather.gov/adds/metars/
 
KLBE 270539Z 2706/2806 00000KT P6SM SCT050 
     FM270800 VRB03KT P6SM SCT100